Time;durP1;ratioP1;P1;durP2;ratioP2;P2;SDS_P1;SDS_P2;PMS_P1;PMS_P2;Temp;Humidity;BMP_temperature;BMP_pressure;BME280_temperature;BME280_humidity;BME280_pressure;Samples;Min_cycle;Max_cycle;Signal;HPM_P1;HPM_P2
2022/08/11 00:00:32;;;;;;;;;;;;;;;;;;5033134;28;20031;-72
2022/08/11 00:03:03;;;;;;;4.05;2.78;;;;;;;;;;5033595;28;20384;-71
2022/08/11 00:05:29;;;;;;;3.90;2.78;;;;;;;;;;5033660;28;20022;-71
2022/08/11 00:07:56;;;;;;;4.68;3.03;;;;;;;;;;5033460;28;20041;-72
2022/08/11 00:10:24;;;;;;;4.03;3.25;;;;;;;;;;5033135;28;20021;-72
2022/08/11 00:12:52;;;;;;;4.25;3.00;;;;;;;;;;5033410;28;20021;-71
2022/08/11 00:15:19;;;;;;;3.83;3.00;;;;;;;;;;5033398;28;20059;-71
2022/08/11 00:17:46;;;;;;;3.63;3.00;;;;;;;;;;5033637;28;20022;-72
2022/08/11 00:20:13;;;;;;;4.20;2.90;;;;;;;;;;5033184;28;20030;-72
2022/08/11 00:22:41;;;;;;;4.70;3.42;;;;;;;;;;5033111;28;20441;-72
2022/08/11 00:25:09;;;;;;;6.22;3.00;;;;;;;;;;5032777;28;20033;-72
2022/08/11 00:27:36;;;;;;;4.60;3.25;;;;;;;;;;5033259;28;20037;-71
2022/08/11 00:30:04;;;;;;;3.45;2.90;;;;;;;;;;5032764;28;20020;-72
2022/08/11 00:32:31;;;;;;;7.57;3.50;;;;;;;;;;5033375;28;20031;-71
2022/08/11 00:34:58;;;;;;;4.90;3.50;;;;;;;;;;5033060;28;20380;-71
2022/08/11 00:37:25;;;;;;;10.80;3.53;;;;;;;;;;5032587;28;20029;-71
2022/08/11 00:39:53;;;;;;;6.55;3.33;;;;;;;;;;5032399;28;20045;-72
2022/08/11 00:42:38;;;;;;;6.15;4.00;;;;;;;;;;5033116;28;20022;-72
2022/08/11 00:45:18;;;;;;;7.53;4.35;;;;;;;;;;5032870;28;20035;-72
2022/08/11 00:47:58;;;;;;;7.10;4.32;;;;;;;;;;5032761;28;20025;-71
2022/08/11 00:50:43;;;;;;;5.13;4.33;;;;;;;;;;5032726;28;20025;-71
2022/08/11 00:53:15;;;;;;;8.93;4.40;;;;;;;;;;5032854;28;20035;-71
2022/08/11 00:55:56;;;;;;;5.22;4.05;;;;;;;;;;5032636;28;20030;-72
2022/08/11 00:58:37;;;;;;;5.20;4.00;;;;;;;;;;5032907;28;20025;-72
2022/08/11 01:01:03;;;;;;;4.05;3.38;;;;;;;;;;5032630;28;20029;-71
2022/08/11 01:03:30;;;;;;;6.25;4.13;;;;;;;;;;5032748;28;20391;-72
2022/08/11 01:06:03;;;;;;;5.05;4.03;;;;;;;;;;5032748;28;20028;-71
2022/08/11 01:08:42;;;;;;;8.98;3.60;;;;;;;;;;5030914;28;20029;-72
2022/08/11 01:11:08;;;;;;;5.55;3.97;;;;;;;;;;5032257;28;20021;-71
2022/08/11 01:13:53;;;;;;;7.10;3.90;;;;;;;;;;5032511;28;20514;-72
2022/08/11 01:16:48;;;;;;;6.38;4.30;;;;;;;;;;5032372;28;20017;-72
2022/08/11 01:19:34;;;;;;;4.40;4.00;;;;;;;;;;5010380;28;20049;-72
2022/08/11 01:22:03;;;;;;;7.60;3.67;;;;;;;;;;5010283;28;20508;-72
2022/08/11 01:24:35;;;;;;;5.50;4.00;;;;;;;;;;5010488;28;20046;-71
2022/08/11 01:27:13;;;;;;;7.15;4.43;;;;;;;;;;5010697;28;20021;-71
2022/08/11 01:29:39;;;;;;;7.93;4.07;;;;;;;;;;5010433;28;20393;-70
2022/08/11 01:32:24;;;;;;;7.30;4.47;;;;;;;;;;5010387;28;20038;-72
2022/08/11 01:34:53;;;;;;;6.18;4.60;;;;;;;;;;5010270;28;20017;-71
2022/08/11 01:37:38;;;;;;;7.43;4.93;;;;;;;;;;5009865;28;20034;-72
2022/08/11 01:40:23;;;;;;;5.82;4.82;;;;;;;;;;5010318;28;20041;-72
2022/08/11 01:46:18;;;;;;;6.93;5.00;;;;;;;;;;4956044;29;20043;-72
2022/08/11 01:48:54;;;;;;;7.07;4.68;;;;;;;;;;4955850;29;20050;-72
2022/08/11 01:51:35;;;;;;;7.05;4.88;;;;;;;;;;4955583;29;20040;-72
2022/08/11 01:54:11;;;;;;;7.90;5.30;;;;;;;;;;4955892;29;20057;-71
2022/08/11 01:56:40;;;;;;;6.57;4.90;;;;;;;;;;4973202;28;20035;-72
2022/08/11 01:59:24;;;;;;;7.32;5.20;;;;;;;;;;4974873;28;20043;-71
2022/08/11 02:02:18;;;;;;;8.35;5.40;;;;;;;;;;4975102;28;20039;-72
2022/08/11 02:05:06;;;;;;;9.82;5.45;;;;;;;;;;4975031;28;20034;-71
2022/08/11 02:07:35;;;;;;;8.60;5.68;;;;;;;;;;4975145;28;20023;-72
2022/08/11 02:13:00;;;;;;;11.85;5.70;;;;;;;;;;4974625;28;20046;-72
2022/08/11 02:15:33;;;;;;;7.38;5.47;;;;;;;;;;4974740;28;20065;-71
2022/08/11 02:18:10;;;;;;;7.38;5.57;;;;;;;;;;4974635;28;20023;-72
2022/08/11 02:26:12;;;;;;;8.65;5.45;;;;;;;;;;5015964;28;20049;-71
2022/08/11 02:28:44;;;;;;;7.07;5.25;;;;;;;;;;5015851;28;20345;-72
2022/08/11 02:34:14;;;;;;;8.73;5.40;;;;;;;;;;5018026;28;20021;-72
2022/08/11 02:37:00;;;;;;;9.27;5.45;;;;;;;;;;5035186;28;20021;-72
2022/08/11 02:39:38;;;;;;;6.85;5.75;;;;;;;;;;5035133;28;20399;-72
2022/08/11 02:42:22;;;;;;;7.95;5.78;;;;;;;;;;5035118;28;20026;-71
2022/08/11 02:44:55;;;;;;;8.48;5.97;;;;;;;;;;5035426;28;20468;-72
2022/08/11 02:47:40;;;;;;;7.65;5.68;;;;;;;;;;5035544;28;20030;-72
2022/08/11 02:50:34;;;;;;;9.55;5.95;;;;;;;;;;5034967;28;20017;-71
2022/08/11 02:53:10;;;;;;;8.68;6.35;;;;;;;;;;5033545;28;20036;-72
2022/08/11 02:55:55;;;;;;;10.82;5.45;;;;;;;;;;5035302;28;20067;-72
2022/08/11 02:58:40;;;;;;;8.07;5.45;;;;;;;;;;5033519;28;20029;-72
2022/08/11 03:01:17;;;;;;;7.95;5.65;;;;;;;;;;5034620;28;20402;-72
2022/08/11 03:03:57;;;;;;;6.38;5.57;;;;;;;;;;5034851;28;20029;-72
2022/08/11 03:06:27;;;;;;;11.88;6.50;;;;;;;;;;5034777;28;20017;-71
2022/08/11 03:08:58;;;;;;;7.68;5.90;;;;;;;;;;5034586;28;20051;-72
2022/08/11 03:17:09;;;;;;;8.93;6.18;;;;;;;;;;5034259;28;20022;-72
2022/08/11 03:19:35;;;;;;;12.50;6.28;;;;;;;;;;5034409;28;20465;-72
2022/08/11 03:22:10;;;;;;;8.65;6.38;;;;;;;;;;5034539;28;20028;-71
2022/08/11 03:24:39;;;;;;;8.52;6.00;;;;;;;;;;5034584;28;20032;-72
2022/08/11 03:27:13;;;;;;;7.82;6.32;;;;;;;;;;5034418;28;20480;-72
2022/08/11 03:29:42;;;;;;;9.63;5.82;;;;;;;;;;5034406;28;20059;-72
2022/08/11 03:32:29;;;;;;;9.10;6.30;;;;;;;;;;5033998;28;20022;-71
2022/08/11 03:34:56;;;;;;;8.80;5.70;;;;;;;;;;5034131;28;20030;-72
2022/08/11 03:37:50;;;;;;;12.85;6.20;;;;;;;;;;5034305;28;20017;-72
2022/08/11 03:43:42;;;;;;;9.20;5.97;;;;;;;;;;5034232;28;20032;-72
2022/08/11 03:46:19;;;;;;;8.85;6.03;;;;;;;;;;5033646;28;20024;-71
2022/08/11 03:48:48;;;;;;;12.27;7.00;;;;;;;;;;5034178;28;20033;-72
2022/08/11 03:51:20;;;;;;;13.48;7.40;;;;;;;;;;5033878;28;20025;-71
2022/08/11 03:53:59;;;;;;;14.15;8.27;;;;;;;;;;5032610;28;20388;-72
2022/08/11 03:56:44;;;;;;;12.15;8.18;;;;;;;;;;5033738;28;20034;-71
2022/08/11 03:59:28;;;;;;;9.75;7.85;;;;;;;;;;5033738;28;20037;-72
2022/08/11 04:02:00;;;;;;;11.35;8.13;;;;;;;;;;5033356;28;20035;-71
2022/08/11 04:04:54;;;;;;;18.45;8.77;;;;;;;;;;5032841;28;20077;-72
2022/08/11 04:07:44;;;;;;;14.90;8.68;;;;;;;;;;5033835;28;20025;-72
2022/08/11 04:10:10;;;;;;;13.55;8.80;;;;;;;;;;5033813;28;20044;-72
2022/08/11 04:12:42;;;;;;;12.40;8.82;;;;;;;;;;5033613;28;20021;-72
2022/08/11 04:18:24;;;;;;;14.35;10.30;;;;;;;;;;5033529;28;20033;-71
2022/08/11 04:21:10;;;;;;;14.52;10.00;;;;;;;;;;5033073;28;20025;-73
2022/08/11 04:24:02;;;;;;;12.95;9.50;;;;;;;;;;5033653;28;20036;-73
2022/08/11 04:26:32;;;;;;;12.55;9.52;;;;;;;;;;5033102;28;20038;-73
2022/08/11 04:29:17;;;;;;;12.50;10.35;;;;;;;;;;5033282;28;20032;-72
2022/08/11 04:32:00;;;;;;;16.20;10.50;;;;;;;;;;5032978;28;20028;-73
2022/08/11 04:34:39;;;;;;;17.13;11.13;;;;;;;;;;5032968;28;20021;-73
2022/08/11 04:37:33;;;;;;;13.63;10.88;;;;;;;;;;5032715;28;20026;-72
2022/08/11 04:40:18;;;;;;;27.23;12.57;;;;;;;;;;5032898;28;20091;-73
2022/08/11 04:45:39;;;;;;;52.40;14.30;;;;;;;;;;5031547;28;20083;-73
2022/08/11 05:03:08;;;;;;;37.03;13.75;;;;;;;;;;5032567;28;20028;-73
2022/08/11 05:05:53;;;;;;;60.85;15.93;;;;;;;;;;5032798;28;20036;-73
2022/08/11 05:08:38;;;;;;;418.95;51.88;;;;;;;;;;5032420;28;20025;-72
2022/08/11 05:11:11;;;;;;;76.97;19.17;;;;;;;;;;5032779;28;20035;-73
2022/08/11 05:36:38;;;;;;;15.82;11.60;;;;;;;;;;5016177;28;20399;-73
2022/08/11 05:58:40;;;;;;;20.30;12.88;;;;;;;;;;5031711;28;20500;-73
2022/08/11 06:01:07;;;;;;;22.05;12.65;;;;;;;;;;5032255;28;20032;-73
2022/08/11 06:06:21;;;;;;;22.25;13.35;;;;;;;;;;5032009;28;20411;-72
2022/08/11 06:08:47;;;;;;;21.73;13.15;;;;;;;;;;5030792;28;20028;-73
2022/08/11 06:11:15;;;;;;;18.77;12.85;;;;;;;;;;5031557;28;20034;-72
2022/08/11 06:13:44;;;;;;;21.08;13.30;;;;;;;;;;5031762;28;20029;-72
2022/08/11 06:16:11;;;;;;;23.77;12.55;;;;;;;;;;5032208;28;20035;-73
2022/08/11 06:18:37;;;;;;;24.58;10.70;;;;;;;;;;5031651;28;20036;-73
2022/08/11 06:21:08;;;;;;;14.43;9.70;;;;;;;;;;5031781;28;20494;-73
2022/08/11 06:23:35;;;;;;;;;;;;;;;;;;5032497;28;20037;-73
2022/08/11 06:26:01;;;;;;;21.25;9.93;;;;;;;;;;5031880;28;19909;-73
2022/08/11 06:28:30;;;;;;;20.48;11.82;;;;;;;;;;5033604;28;20028;-73
2022/08/11 06:30:57;;;;;;;22.75;12.13;;;;;;;;;;5033195;28;20019;-70
2022/08/11 06:33:30;;;;;;;22.35;13.30;;;;;;;;;;5034193;28;20484;-70
2022/08/11 06:36:15;;;;;;;20.63;13.90;;;;;;;;;;5032209;28;20087;-70
2022/08/11 06:39:00;;;;;;;19.40;12.40;;;;;;;;;;5029128;28;20510;-71
2022/08/11 06:41:33;;;;;;;20.40;14.35;;;;;;;;;;5034213;28;20135;-70
2022/08/11 06:44:00;;;;;;;27.10;14.30;;;;;;;;;;5034831;28;20029;-70
2022/08/11 06:46:31;;;;;;;24.10;13.35;;;;;;;;;;5034557;28;20024;-70
2022/08/11 06:49:01;;;;;;;24.08;14.15;;;;;;;;;;5033505;28;20043;-70
2022/08/11 06:51:28;;;;;;;20.33;12.98;;;;;;;;;;5034269;28;20401;-70
2022/08/11 06:54:01;;;;;;;22.23;14.45;;;;;;;;;;5032393;28;20029;-70
2022/08/11 07:02:17;;;;;;;23.25;14.98;;;;;;;;;;5033429;28;20491;-70
2022/08/11 07:04:51;;;;;;;25.35;14.70;;;;;;;;;;5029889;28;20395;-70
2022/08/11 07:15:59;;;;;;;138.57;22.13;;;;;;;;;;5032986;28;20391;-70
2022/08/11 07:29:51;;;;;;;24.88;17.25;;;;;;;;;;5012765;28;20026;-70
2022/08/11 07:32:26;;;;;;;27.05;16.67;;;;;;;;;;5013176;28;20028;-69
2022/08/11 07:34:56;;;;;;;25.35;16.15;;;;;;;;;;5020277;28;20032;-69
2022/08/11 07:37:24;;;;;;;25.92;15.48;;;;;;;;;;5032640;28;20395;-69
2022/08/11 07:39:52;;;;;;;30.10;17.73;;;;;;;;;;5031630;28;20058;-69
2022/08/11 07:42:27;;;;;;;30.95;18.42;;;;;;;;;;5032711;28;20036;-68
2022/08/11 07:53:11;;;;;;;49.97;19.05;;;;;;;;;;5031734;28;20561;-70
2022/08/11 07:55:37;;;;;;;28.58;16.98;;;;;;;;;;5032878;28;20030;-70
2022/08/11 08:20:13;;;;;;;29.73;15.98;;;;;;;;;;5031054;28;20061;-71
2022/08/11 08:22:39;;;;;;;27.55;15.57;;;;;;;;;;5030999;28;20025;-71
2022/08/11 08:25:07;;;;;;;24.67;16.35;;;;;;;;;;5031645;28;20022;-71
2022/08/11 08:27:34;;;;;;;40.22;17.15;;;;;;;;;;5031662;28;20032;-70
2022/08/11 08:32:47;;;;;;;25.95;17.50;;;;;;;;;;5032192;28;20018;-70
2022/08/11 08:35:14;;;;;;;27.92;17.38;;;;;;;;;;5031275;28;20033;-70
2022/08/11 08:37:41;;;;;;;27.00;16.00;;;;;;;;;;5030980;28;20361;-71
2022/08/11 08:40:08;;;;;;;25.27;17.05;;;;;;;;;;5031494;28;20057;-71
2022/08/11 08:42:40;;;;;;;24.48;16.88;;;;;;;;;;5031444;28;20025;-70
2022/08/11 08:45:12;;;;;;;26.13;15.88;;;;;;;;;;5031283;28;20029;-70
2022/08/11 08:47:41;;;;;;;26.52;17.52;;;;;;;;;;5031316;28;20043;-71
2022/08/11 08:50:13;;;;;;;29.73;17.88;;;;;;;;;;5030796;28;20049;-71
2022/08/11 08:52:42;;;;;;;27.13;17.35;;;;;;;;;;5030873;28;20037;-71
2022/08/11 08:55:11;;;;;;;25.52;17.60;;;;;;;;;;5029641;28;20028;-70
2022/08/11 08:57:38;;;;;;;23.77;16.73;;;;;;;;;;5030966;28;20033;-71
2022/08/11 09:00:05;;;;;;;24.65;17.67;;;;;;;;;;5030452;28;20037;-71
2022/08/11 09:02:32;;;;;;;27.00;17.52;;;;;;;;;;5031159;28;20499;-71
2022/08/11 09:04:58;;;;;;;23.23;16.48;;;;;;;;;;5030602;28;20026;-71
2022/08/11 09:07:25;;;;;;;28.50;15.77;;;;;;;;;;5030998;28;20025;-71
2022/08/11 09:09:53;;;;;;;22.38;16.67;;;;;;;;;;5030241;28;20032;-71
2022/08/11 09:12:20;;;;;;;77.20;18.48;;;;;;;;;;5030913;28;20499;-71
2022/08/11 09:15:00;;;;;;;25.85;15.20;;;;;;;;;;5030755;28;20398;-71
2022/08/11 09:17:35;;;;;;;34.45;15.13;;;;;;;;;;5030595;28;20537;-71
2022/08/11 09:20:07;;;;;;;22.75;14.43;;;;;;;;;;5029162;28;20034;-71
2022/08/11 09:28:10;;;;;;;18.05;13.43;;;;;;;;;;5029474;28;20013;-71
2022/08/11 09:30:37;;;;;;;28.58;13.50;;;;;;;;;;5030202;28;20038;-71
2022/08/11 09:33:04;;;;;;;18.02;12.80;;;;;;;;;;5030702;28;20033;-71
2022/08/11 09:35:32;;;;;;;13.45;9.95;;;;;;;;;;5030354;28;20041;-71
2022/08/11 09:40:45;;;;;;;14.25;7.75;;;;;;;;;;5030690;28;20423;-71
2022/08/11 09:45:58;;;;;;;14.60;10.23;;;;;;;;;;5030820;28;20025;-71
2022/08/11 09:48:26;;;;;;;11.00;6.10;;;;;;;;;;5030628;28;20032;-71
2022/08/11 09:51:00;;;;;;;10.18;3.70;;;;;;;;;;5030557;28;20032;-72
2022/08/11 09:53:27;;;;;;;16.80;3.08;;;;;;;;;;5030678;28;20403;-73
2022/08/11 09:55:54;;;;;;;4.60;2.10;;;;;;;;;;5030833;28;20040;-73
2022/08/11 09:58:23;;;;;;;3.22;2.13;;;;;;;;;;5030190;28;20018;-72
2022/08/11 10:00:50;;;;;;;4.47;1.77;;;;;;;;;;5029802;28;20075;-75
2022/08/11 10:03:18;;;;;;;3.28;1.92;;;;;;;;;;5031773;28;20385;-73
2022/08/11 10:08:34;;;;;;;7.10;1.85;;;;;;;;;;5034104;28;20388;-75
2022/08/11 10:11:01;;;;;;;6.55;2.22;;;;;;;;;;5034140;28;20026;-73
2022/08/11 10:15:32;;;;;;;2.63;1.90;;;;;;;;;;5033405;28;20483;-70
2022/08/11 10:16:25;;;;;;;5.80;1.83;;;;;;;;;;5034124;28;20459;-70
2022/08/11 10:18:52;;;;;;;8.23;2.20;;;;;;;;;;5033942;28;20026;-71
2022/08/11 10:21:39;;;;;;;6.95;1.85;;;;;;;;;;5034016;28;20025;-70
2022/08/11 10:26:57;;;;;;;5.63;1.70;;;;;;;;;;5034286;28;20032;-72
2022/08/11 10:35:08;;;;;;;2.00;1.57;;;;;;;;;;5033678;28;20030;-73
2022/08/11 10:37:35;;;;;;;3.13;1.95;;;;;;;;;;5033428;28;20055;-73
2022/08/11 10:40:04;;;;;;;3.05;1.70;;;;;;;;;;5034221;28;20056;-73
2022/08/11 10:48:03;;;;;;;2.20;1.70;;;;;;;;;;5049880;28;20026;-73
2022/08/11 10:58:50;;;;;;;8.75;1.80;;;;;;;;;;5034035;28;20028;-72
2022/08/11 11:01:24;;;;;;;2.97;1.88;;;;;;;;;;5034040;28;20033;-72
2022/08/11 11:03:51;;;;;;;3.88;1.70;;;;;;;;;;5033945;28;20029;-73
2022/08/11 11:06:18;;;;;;;3.58;1.85;;;;;;;;;;5034262;28;20025;-72
2022/08/11 11:08:52;;;;;;;4.32;1.63;;;;;;;;;;5034307;28;20475;-73
2022/08/11 11:11:19;;;;;;;3.83;1.70;;;;;;;;;;5034368;28;20032;-73
2022/08/11 11:19:23;;;;;;;4.07;1.90;;;;;;;;;;5034138;28;20040;-73
2022/08/11 11:21:51;;;;;;;2.90;1.70;;;;;;;;;;5033896;28;20025;-72
2022/08/11 11:24:38;;;;;;;2.47;1.73;;;;;;;;;;5034252;28;20264;-72
2022/08/11 11:27:14;;;;;;;3.10;1.92;;;;;;;;;;5033760;28;20032;-72
2022/08/11 11:29:48;;;;;;;4.00;1.90;;;;;;;;;;5033930;28;20031;-73
2022/08/11 11:32:14;;;;;;;2.70;1.70;;;;;;;;;;5033716;28;20029;-72
2022/08/11 11:34:41;;;;;;;2.25;1.65;;;;;;;;;;5033890;28;20020;-72
2022/08/11 11:37:07;;;;;;;4.45;1.70;;;;;;;;;;5033559;28;20527;-72
2022/08/11 11:39:35;;;;;;;6.13;1.65;;;;;;;;;;5032488;28;20391;-73
2022/08/11 11:42:03;;;;;;;4.88;2.03;;;;;;;;;;5033344;28;20040;-73
2022/08/11 11:44:30;;;;;;;7.47;2.20;;;;;;;;;;5033131;28;20047;-72
2022/08/11 11:46:57;;;;;;;4.38;1.80;;;;;;;;;;5033400;28;20022;-72
2022/08/11 11:49:26;;;;;;;2.90;1.92;;;;;;;;;;5033861;28;20029;-72
2022/08/11 11:51:53;;;;;;;3.58;1.80;;;;;;;;;;5033356;28;20391;-72
2022/08/11 11:54:25;;;;;;;2.50;2.00;;;;;;;;;;5033292;28;20537;-72
2022/08/11 11:56:54;;;;;;;6.18;2.35;;;;;;;;;;5031700;28;20029;-72
2022/08/11 12:02:10;;;;;;;10.10;2.20;;;;;;;;;;5033167;28;20377;-72
2022/08/11 12:04:37;;;;;;;3.33;1.63;;;;;;;;;;5032860;28;20018;-72
2022/08/11 12:09:50;;;;;;;3.90;2.20;;;;;;;;;;5032798;28;20025;-72
2022/08/11 12:15:01;;;;;;;3.17;2.20;;;;;;;;;;5031499;28;20029;-71
2022/08/11 12:17:28;;;;;;;2.22;1.98;;;;;;;;;;5032000;28;20024;-72
2022/08/11 12:19:54;;;;;;;4.53;2.00;;;;;;;;;;5031651;28;20068;-71
2022/08/11 12:27:53;;;;;;;4.55;2.20;;;;;;;;;;5031806;28;20018;-72
2022/08/11 12:30:19;;;;;;;2.05;1.85;;;;;;;;;;5031362;28;20026;-71
2022/08/11 12:32:46;;;;;;;6.13;2.50;;;;;;;;;;5031538;28;20450;-72
2022/08/11 12:35:14;;;;;;;2.17;2.00;;;;;;;;;;5031291;28;20029;-72
2022/08/11 12:37:54;;;;;;;3.03;2.10;;;;;;;;;;5031484;28;20035;-71
2022/08/11 12:46:09;;;;;;;2.33;1.83;;;;;;;;;;5031696;28;20017;-72
2022/08/11 12:54:15;;;;;;;3.13;2.00;;;;;;;;;;5030992;28;20026;-72
2022/08/11 13:05:06;;;;;;;5.85;2.47;;;;;;;;;;5031028;28;20040;-72
2022/08/11 13:07:33;;;;;;;3.20;2.88;;;;;;;;;;5015717;28;20096;-72
2022/08/11 13:10:01;;;;;;;2.80;2.40;;;;;;;;;;5031170;28;20029;-71
2022/08/11 13:12:46;;;;;;;2.42;2.22;;;;;;;;;;5030743;28;20052;-71
2022/08/11 13:15:19;;;;;;;3.55;2.40;;;;;;;;;;5030809;28;20028;-71
2022/08/11 13:17:47;;;;;;;4.43;2.97;;;;;;;;;;5030804;28;20025;-72
2022/08/11 13:20:16;;;;;;;5.28;2.80;;;;;;;;;;5030111;28;20408;-72
2022/08/11 13:22:46;;;;;;;5.20;3.10;;;;;;;;;;5030646;28;20510;-72
2022/08/11 13:25:15;;;;;;;3.92;3.13;;;;;;;;;;5030963;28;20024;-72
2022/08/11 13:27:42;;;;;;;4.68;3.38;;;;;;;;;;5030654;28;20026;-72
2022/08/11 13:32:54;;;;;;;4.13;3.30;;;;;;;;;;5030534;28;20523;-71
2022/08/11 13:35:22;;;;;;;5.70;3.22;;;;;;;;;;5030646;28;20500;-71
2022/08/11 13:37:50;;;;;;;4.75;3.05;;;;;;;;;;5034687;28;20060;-72
2022/08/11 13:40:17;;;;;;;4.13;2.90;;;;;;;;;;5037457;28;20041;-71
2022/08/11 13:42:44;;;;;;;3.63;2.95;;;;;;;;;;5037462;28;20498;-72
2022/08/11 13:45:11;;;;;;;6.10;3.15;;;;;;;;;;5037362;28;20043;-72
2022/08/11 13:47:38;;;;;;;5.60;3.45;;;;;;;;;;5036543;28;20029;-71
2022/08/11 13:50:05;;;;;;;7.30;2.90;;;;;;;;;;5035986;28;20514;-71
2022/08/11 13:52:32;;;;;;;4.93;3.20;;;;;;;;;;5036944;28;20437;-71
2022/08/11 13:54:59;;;;;;;4.70;2.28;;;;;;;;;;5037035;28;20482;-70
2022/08/11 13:57:25;;;;;;;4.00;2.70;;;;;;;;;;5037156;28;20499;-71
2022/08/11 13:59:53;;;;;;;3.45;3.10;;;;;;;;;;5036774;28;20300;-71
2022/08/11 14:02:22;;;;;;;5.55;3.28;;;;;;;;;;5036931;28;20028;-71
2022/08/11 14:04:54;;;;;;;2.97;2.78;;;;;;;;;;5037305;28;20027;-71
2022/08/11 14:07:21;;;;;;;4.70;3.20;;;;;;;;;;5036997;28;20399;-71
2022/08/11 14:09:48;;;;;;;5.10;3.15;;;;;;;;;;5036515;28;20021;-71
2022/08/11 14:15:06;;;;;;;5.18;3.58;;;;;;;;;;5037013;28;20028;-69
2022/08/11 14:17:34;;;;;;;4.00;3.30;;;;;;;;;;5037047;28;20529;-69
2022/08/11 14:20:02;;;;;;;5.97;3.30;;;;;;;;;;5037078;28;20048;-70
2022/08/11 14:22:29;;;;;;;4.22;3.30;;;;;;;;;;5036718;28;20026;-71
2022/08/11 14:24:57;;;;;;;7.63;3.47;;;;;;;;;;5036511;28;20433;-71
2022/08/11 14:27:28;;;;;;;8.23;3.47;;;;;;;;;;5037213;28;20035;-71
2022/08/11 14:29:55;;;;;;;3.72;3.30;;;;;;;;;;5036902;28;20029;-71
2022/08/11 14:32:21;;;;;;;3.17;2.97;;;;;;;;;;5037030;28;20480;-71
2022/08/11 14:34:48;;;;;;;4.60;3.28;;;;;;;;;;5036959;28;20055;-71
2022/08/11 14:37:18;;;;;;;6.78;3.78;;;;;;;;;;5036969;28;20381;-71
2022/08/11 14:39:46;;;;;;;4.65;4.10;;;;;;;;;;5036424;28;20045;-71
2022/08/11 14:47:39;;;;;;;5.10;3.33;;;;;;;;;;5036830;28;20030;-70
2022/08/11 14:50:07;;;;;;;6.88;3.45;;;;;;;;;;5033526;28;20036;-71
2022/08/11 14:52:34;;;;;;;8.80;4.25;;;;;;;;;;5033880;28;20025;-71
2022/08/11 14:57:47;;;;;;;8.32;3.28;;;;;;;;;;5048445;28;20036;-71
2022/08/11 15:00:16;;;;;;;7.32;3.22;;;;;;;;;;5032973;28;20033;-71
2022/08/11 15:05:29;;;;;;;5.57;3.50;;;;;;;;;;5032090;28;20364;-71
2022/08/11 15:07:56;;;;;;;6.63;3.88;;;;;;;;;;5013365;28;20500;-71
2022/08/11 15:10:23;;;;;;;3.80;3.42;;;;;;;;;;5013569;28;20040;-71
2022/08/11 15:12:50;;;;;;;4.95;3.58;;;;;;;;;;5013518;28;20447;-71
2022/08/11 15:18:04;;;;;;;5.30;4.43;;;;;;;;;;5032684;28;20036;-71
2022/08/11 15:37:25;;;;;;;9.68;3.70;;;;;;;;;;5033391;28;20045;-71
2022/08/11 15:37:34;;;;;;;9.23;5.00;;;;;;;;;;5032322;28;20025;-71
2022/08/11 15:45:52;;;;;;;5.78;4.30;;;;;;;;;;5009451;28;20053;-71
2022/08/11 15:48:27;;;;;;;6.35;4.68;;;;;;;;;;5010104;28;20030;-71
2022/08/11 15:50:55;;;;;;;5.80;4.22;;;;;;;;;;5010598;28;20033;-70
2022/08/11 15:53:27;;;;;;;4.97;4.20;;;;;;;;;;4993977;28;20832;-71
2022/08/11 15:55:54;;;;;;;7.40;4.20;;;;;;;;;;5010484;28;20050;-70
2022/08/11 16:04:11;;;;;;;8.38;4.60;;;;;;;;;;5011318;28;20539;-71
2022/08/11 16:06:40;;;;;;;6.47;4.13;;;;;;;;;;5011185;28;20038;-71
2022/08/11 16:09:07;;;;;;;5.18;4.32;;;;;;;;;;5011457;28;20036;-71
2022/08/11 16:11:34;;;;;;;6.22;4.40;;;;;;;;;;5011191;28;20071;-71
2022/08/11 16:16:49;;;;;;;5.57;3.97;;;;;;;;;;5011297;28;20034;-71
2022/08/11 16:19:16;;;;;;;8.55;4.30;;;;;;;;;;5011190;28;20034;-70
2022/08/11 16:21:43;;;;;;;8.60;4.45;;;;;;;;;;5023987;28;20037;-70
2022/08/11 16:24:10;;;;;;;4.22;3.80;;;;;;;;;;5031782;28;20488;-70
2022/08/11 16:26:38;;;;;;;6.88;4.07;;;;;;;;;;5032653;28;20027;-71
2022/08/11 16:29:05;;;;;;;4.57;4.18;;;;;;;;;;5032813;28;20035;-70
2022/08/11 16:31:32;;;;;;;9.32;4.82;;;;;;;;;;5033179;28;20021;-71
2022/08/11 16:33:59;;;;;;;8.80;3.92;;;;;;;;;;5032668;28;20079;-70
2022/08/11 16:39:12;;;;;;;6.10;4.45;;;;;;;;;;5032800;28;20039;-71
2022/08/11 16:47:15;;;;;;;6.60;4.03;;;;;;;;;;5032778;28;20030;-71
2022/08/11 16:49:51;;;;;;;5.05;4.00;;;;;;;;;;5032578;28;20387;-70
2022/08/11 16:52:18;;;;;;;5.78;4.30;;;;;;;;;;5032971;28;20036;-70
2022/08/11 16:54:48;;;;;;;7.88;4.40;;;;;;;;;;5033218;28;20025;-71
2022/08/11 17:00:18;;;;;;;4.45;3.90;;;;;;;;;;5032698;28;20308;-71
2022/08/11 17:13:56;;;;;;;6.38;3.83;;;;;;;;;;5032801;28;20033;-70
2022/08/11 17:16:27;;;;;;;5.55;3.90;;;;;;;;;;5032601;28;20021;-71
2022/08/11 17:18:56;;;;;;;5.72;3.90;;;;;;;;;;5032179;28;20029;-71
2022/08/11 17:21:28;;;;;;;5.95;3.78;;;;;;;;;;5032816;28;20021;-70
2022/08/11 17:24:06;;;;;;;7.75;3.70;;;;;;;;;;5032533;28;20092;-70
2022/08/11 17:29:23;;;;;;;4.03;3.65;;;;;;;;;;5032486;28;20025;-70
2022/08/11 17:37:21;;;;;;;5.38;3.58;;;;;;;;;;5032222;28;20026;-70
2022/08/11 17:39:48;;;;;;;5.20;3.60;;;;;;;;;;5032110;28;20055;-70
2022/08/11 17:50:33;;;;;;;4.55;3.50;;;;;;;;;;5032109;28;20021;-70
2022/08/11 18:01:18;;;;;;;5.95;3.33;;;;;;;;;;5032227;28;20033;-70
2022/08/11 18:03:44;;;;;;;4.40;3.42;;;;;;;;;;5031823;28;20036;-70
2022/08/11 18:06:12;;;;;;;8.00;3.30;;;;;;;;;;5031957;28;20025;-71
